sensor_id;sensor_type;location;lat;lon;timestamp;pressure;altitude;pressure_sealevel;temperature;humidity
7966;BME280;4028;43.272;26.932;2023-12-14T00:01:50;98178.09;;;6.84;100.00
7966;BME280;4028;43.272;26.932;2023-12-14T00:04:15;98171.75;;;6.76;100.00
7966;BME280;4028;43.272;26.932;2023-12-14T00:06:41;98145.50;;;6.67;100.00
7966;BME280;4028;43.272;26.932;2023-12-14T00:09:07;98186.13;;;6.82;100.00
7966;BME280;4028;43.272;26.932;2023-12-14T00:11:38;98187.38;;;6.78;100.00
7966;BME280;4028;43.272;26.932;2023-12-14T00:14:04;98193.88;;;6.84;100.00
7966;BME280;4028;43.272;26.932;2023-12-14T00:16:29;98182.13;;;6.78;100.00
7966;BME280;4028;43.272;26.932;2023-12-14T00:18:55;98194.13;;;6.81;100.00
7966;BME280;4028;43.272;26.932;2023-12-14T00:21:20;98180.16;;;6.80;100.00
7966;BME280;4028;43.272;26.932;2023-12-14T00:23:46;98167.59;;;6.74;100.00
7966;BME280;4028;43.272;26.932;2023-12-14T00:26:11;98174.34;;;6.86;100.00
7966;BME280;4028;43.272;26.932;2023-12-14T00:28:37;98175.19;;;6.87;100.00
7966;BME280;4028;43.272;26.932;2023-12-14T00:31:03;98168.34;;;6.94;100.00
7966;BME280;4028;43.272;26.932;2023-12-14T00:33:29;98186.13;;;6.82;100.00
7966;BME280;4028;43.272;26.932;2023-12-14T00:35:54;98187.09;;;6.81;100.00
7966;BME280;4028;43.272;26.932;2023-12-14T00:38:20;98191.38;;;6.82;100.00
7966;BME280;4028;43.272;26.932;2023-12-14T00:40:45;98194.59;;;6.76;100.00
7966;BME280;4028;43.272;26.932;2023-12-14T00:43:11;98197.50;;;6.73;100.00
7966;BME280;4028;43.272;26.932;2023-12-14T00:45:36;98174.44;;;6.57;100.00
7966;BME280;4028;43.272;26.932;2023-12-14T00:48:02;98191.09;;;6.75;100.00
7966;BME280;4028;43.272;26.932;2023-12-14T00:50:27;98190.16;;;6.76;100.00
7966;BME280;4028;43.272;26.932;2023-12-14T00:52:53;98189.06;;;6.69;100.00
7966;BME280;4028;43.272;26.932;2023-12-14T00:55:18;98186.56;;;6.68;100.00
7966;BME280;4028;43.272;26.932;2023-12-14T00:57:44;98183.94;;;6.68;100.00
7966;BME280;4028;43.272;26.932;2023-12-14T01:00:09;98186.69;;;6.76;100.00
7966;BME280;4028;43.272;26.932;2023-12-14T01:02:36;98190.28;;;6.75;100.00
7966;BME280;4028;43.272;26.932;2023-12-14T01:05:01;98185.72;;;6.77;100.00
7966;BME280;4028;43.272;26.932;2023-12-14T01:07:27;98174.94;;;6.70;100.00
7966;BME280;4028;43.272;26.932;2023-12-14T01:09:52;98175.09;;;6.69;100.00
7966;BME280;4028;43.272;26.932;2023-12-14T01:12:18;98176.72;;;6.70;100.00
7966;BME280;4028;43.272;26.932;2023-12-14T01:14:43;98180.66;;;6.66;100.00
7966;BME280;4028;43.272;26.932;2023-12-14T01:17:09;98183.69;;;6.71;100.00
7966;BME280;4028;43.272;26.932;2023-12-14T01:19:34;98181.88;;;6.71;100.00
7966;BME280;4028;43.272;26.932;2023-12-14T01:21:59;98174.00;;;6.62;100.00
7966;BME280;4028;43.272;26.932;2023-12-14T01:24:25;98173.72;;;6.65;100.00
7966;BME280;4028;43.272;26.932;2023-12-14T01:26:50;98169.00;;;6.68;100.00
7966;BME280;4028;43.272;26.932;2023-12-14T01:29:16;98168.31;;;6.66;100.00
7966;BME280;4028;43.272;26.932;2023-12-14T01:31:41;98167.78;;;6.63;100.00
7966;BME280;4028;43.272;26.932;2023-12-14T01:34:07;98163.31;;;6.73;100.00
7966;BME280;4028;43.272;26.932;2023-12-14T01:36:33;98174.66;;;6.73;100.00
7966;BME280;4028;43.272;26.932;2023-12-14T01:38:59;98169.41;;;6.73;100.00
7966;BME280;4028;43.272;26.932;2023-12-14T01:41:24;98159.63;;;6.66;100.00
7966;BME280;4028;43.272;26.932;2023-12-14T01:43:50;98149.53;;;6.61;100.00
7966;BME280;4028;43.272;26.932;2023-12-14T01:46:15;98155.19;;;6.66;100.00
7966;BME280;4028;43.272;26.932;2023-12-14T01:48:41;98147.31;;;6.66;100.00
7966;BME280;4028;43.272;26.932;2023-12-14T01:51:07;98153.22;;;6.68;100.00
7966;BME280;4028;43.272;26.932;2023-12-14T01:53:33;98151.19;;;6.62;100.00
7966;BME280;4028;43.272;26.932;2023-12-14T01:55:58;98145.91;;;6.62;100.00
7966;BME280;4028;43.272;26.932;2023-12-14T01:58:24;98146.06;;;6.61;100.00
7966;BME280;4028;43.272;26.932;2023-12-14T02:03:29;98158.63;;;6.67;100.00
7966;BME280;4028;43.272;26.932;2023-12-14T02:05:54;98147.97;;;6.68;100.00
7966;BME280;4028;43.272;26.932;2023-12-14T02:08:20;98126.72;;;6.52;100.00
7966;BME280;4028;43.272;26.932;2023-12-14T02:10:46;98155.28;;;6.74;100.00
7966;BME280;4028;43.272;26.932;2023-12-14T02:13:11;98157.91;;;6.74;100.00
7966;BME280;4028;43.272;26.932;2023-12-14T02:15:37;98160.00;;;6.71;100.00
7966;BME280;4028;43.272;26.932;2023-12-14T02:18:04;98155.44;;;6.73;100.00
7966;BME280;4028;43.272;26.932;2023-12-14T02:20:29;98160.41;;;6.76;100.00
7966;BME280;4028;43.272;26.932;2023-12-14T02:22:55;98154.06;;;6.69;100.00
7966;BME280;4028;43.272;26.932;2023-12-14T02:25:22;98154.88;;;6.69;100.00
7966;BME280;4028;43.272;26.932;2023-12-14T02:27:49;98157.38;;;6.71;100.00
7966;BME280;4028;43.272;26.932;2023-12-14T02:30:15;98152.97;;;6.71;100.00
7966;BME280;4028;43.272;26.932;2023-12-14T02:32:41;98154.28;;;6.75;100.00
7966;BME280;4028;43.272;26.932;2023-12-14T02:35:08;98151.00;;;6.73;100.00
7966;BME280;4028;43.272;26.932;2023-12-14T02:37:34;98158.06;;;6.73;100.00
7966;BME280;4028;43.272;26.932;2023-12-14T02:40:02;98162.06;;;6.77;100.00
7966;BME280;4028;43.272;26.932;2023-12-14T02:42:29;98162.19;;;6.75;100.00
7966;BME280;4028;43.272;26.932;2023-12-14T02:44:54;98158.22;;;6.71;100.00
7966;BME280;4028;43.272;26.932;2023-12-14T02:47:20;98154.28;;;6.75;100.00
7966;BME280;4028;43.272;26.932;2023-12-14T02:49:45;98150.41;;;6.80;100.00
7966;BME280;4028;43.272;26.932;2023-12-14T02:52:11;98152.78;;;6.83;100.00
7966;BME280;4028;43.272;26.932;2023-12-14T02:54:38;98142.25;;;6.83;100.00
7966;BME280;4028;43.272;26.932;2023-12-14T02:57:04;98099.91;;;6.48;100.00
7966;BME280;4028;43.272;26.932;2023-12-14T02:59:29;98138.28;;;6.69;100.00
7966;BME280;4028;43.272;26.932;2023-12-14T03:01:55;98144.63;;;6.76;100.00
7966;BME280;4028;43.272;26.932;2023-12-14T03:04:20;98139.22;;;6.77;100.00
7966;BME280;4028;43.272;26.932;2023-12-14T03:06:46;98142.25;;;6.83;100.00
7966;BME280;4028;43.272;26.932;2023-12-14T03:09:11;98137.56;;;6.76;100.00
7966;BME280;4028;43.272;26.932;2023-12-14T03:11:37;98132.59;;;6.73;100.00
7966;BME280;4028;43.272;26.932;2023-12-14T03:14:02;98140.63;;;6.72;100.00
7966;BME280;4028;43.272;26.932;2023-12-14T03:16:28;98134.25;;;6.74;100.00
7966;BME280;4028;43.272;26.932;2023-12-14T03:18:53;98120.84;;;6.68;100.00
7966;BME280;4028;43.272;26.932;2023-12-14T03:21:19;98136.28;;;6.81;100.00
7966;BME280;4028;43.272;26.932;2023-12-14T03:23:45;98137.69;;;6.75;100.00
7966;BME280;4028;43.272;26.932;2023-12-14T03:26:10;98134.94;;;6.76;100.00
7966;BME280;4028;43.272;26.932;2023-12-14T03:28:36;98141.72;;;6.69;100.00
7966;BME280;4028;43.272;26.932;2023-12-14T03:31:02;98145.34;;;6.68;100.00
7966;BME280;4028;43.272;26.932;2023-12-14T03:33:28;98149.75;;;6.77;100.00
7966;BME280;4028;43.272;26.932;2023-12-14T03:35:53;98153.47;;;6.75;100.00
7966;BME280;4028;43.272;26.932;2023-12-14T03:38:19;98156.69;;;6.69;100.00
7966;BME280;4028;43.272;26.932;2023-12-14T03:40:44;98147.53;;;6.73;100.00
7966;BME280;4028;43.272;26.932;2023-12-14T03:43:10;98158.47;;;6.78;100.00
7966;BME280;4028;43.272;26.932;2023-12-14T03:45:35;98156.38;;;6.82;100.00
7966;BME280;4028;43.272;26.932;2023-12-14T03:48:01;98156.66;;;6.78;100.00
7966;BME280;4028;43.272;26.932;2023-12-14T03:50:26;98151.97;;;6.72;100.00
7966;BME280;4028;43.272;26.932;2023-12-14T03:52:53;98154.28;;;6.75;100.00
7966;BME280;4028;43.272;26.932;2023-12-14T03:55:18;98154.69;;;6.81;100.00
7966;BME280;4028;43.272;26.932;2023-12-14T03:57:44;98165.38;;;6.79;100.00
7966;BME280;4028;43.272;26.932;2023-12-14T04:00:11;98159.56;;;6.75;100.00
7966;BME280;4028;43.272;26.932;2023-12-14T04:02:38;98157.91;;;6.74;100.00
7966;BME280;4028;43.272;26.932;2023-12-14T04:05:04;98158.31;;;6.80;100.00
7966;BME280;4028;43.272;26.932;2023-12-14T04:07:29;98159.00;;;6.82;100.00
7966;BME280;4028;43.272;26.932;2023-12-14T04:09:55;98154.59;;;6.72;100.00
7966;BME280;4028;43.272;26.932;2023-12-14T04:12:20;98154.59;;;6.72;100.00
7966;BME280;4028;43.272;26.932;2023-12-14T04:14:46;98149.59;;;6.79;100.00
7966;BME280;4028;43.272;26.932;2023-12-14T04:17:11;98156.09;;;6.75;100.00
7966;BME280;4028;43.272;26.932;2023-12-14T04:19:40;98160.41;;;6.76;100.00
7966;BME280;4028;43.272;26.932;2023-12-14T04:22:06;98156.25;;;6.73;100.00
7966;BME280;4028;43.272;26.932;2023-12-14T04:24:31;98162.66;;;6.71;100.00
7966;BME280;4028;43.272;26.932;2023-12-14T04:26:57;98155.19;;;6.66;100.00
7966;BME280;4028;43.272;26.932;2023-12-14T04:29:22;98154.88;;;6.69;100.00
7966;BME280;4028;43.272;26.932;2023-12-14T04:31:48;98151.28;;;6.70;100.00
7966;BME280;4028;43.272;26.932;2023-12-14T04:34:13;98153.38;;;6.67;100.00
7966;BME280;4028;43.272;26.932;2023-12-14T04:36:42;98122.53;;;6.59;100.00
7966;BME280;4028;43.272;26.932;2023-12-14T04:39:07;98140.75;;;6.70;100.00
7966;BME280;4028;43.272;26.932;2023-12-14T04:41:33;98140.09;;;6.68;100.00
7966;BME280;4028;43.272;26.932;2023-12-14T04:43:58;98143.38;;;6.70;100.00
7966;BME280;4028;43.272;26.932;2023-12-14T04:46:24;98147.00;;;6.69;100.00
7966;BME280;4028;43.272;26.932;2023-12-14T04:48:49;98148.25;;;6.65;100.00
7966;BME280;4028;43.272;26.932;2023-12-14T04:51:15;98140.34;;;6.65;100.00
7966;BME280;4028;43.272;26.932;2023-12-14T04:53:40;98145.06;;;6.71;100.00
7966;BME280;4028;43.272;26.932;2023-12-14T04:56:10;98153.91;;;6.70;100.00
7966;BME280;4028;43.272;26.932;2023-12-14T04:58:37;98153.06;;;6.70;100.00
7966;BME280;4028;43.272;26.932;2023-12-14T05:01:02;98155.84;;;6.68;100.00
7966;BME280;4028;43.272;26.932;2023-12-14T05:03:28;98154.22;;;6.67;100.00
7966;BME280;4028;43.272;26.932;2023-12-14T05:05:54;98156.00;;;6.67;100.00
7966;BME280;4028;43.272;26.932;2023-12-14T05:08:19;98155.16;;;6.76;100.00
7966;BME280;4028;43.272;26.932;2023-12-14T05:10:45;98155.16;;;6.76;100.00
7966;BME280;4028;43.272;26.932;2023-12-14T05:13:10;98149.19;;;6.74;100.00
7966;BME280;4028;43.272;26.932;2023-12-14T05:15:35;98148.63;;;6.70;100.00
7966;BME280;4028;43.272;26.932;2023-12-14T05:18:01;98154.22;;;6.67;100.00
7966;BME280;4028;43.272;26.932;2023-12-14T05:20:26;98148.94;;;6.67;100.00
7966;BME280;4028;43.272;26.932;2023-12-14T05:22:52;98135.81;;;6.67;100.00
7966;BME280;4028;43.272;26.932;2023-12-14T05:25:17;98134.66;;;6.70;100.00
7966;BME280;4028;43.272;26.932;2023-12-14T05:27:43;98129.72;;;6.67;100.00
7966;BME280;4028;43.272;26.932;2023-12-14T05:30:09;98139.94;;;6.70;100.00
7966;BME280;4028;43.272;26.932;2023-12-14T05:32:34;98140.91;;;6.69;100.00
7966;BME280;4028;43.272;26.932;2023-12-14T05:35:00;98128.06;;;6.66;100.00
7966;BME280;4028;43.272;26.932;2023-12-14T05:37:25;98121.69;;;6.68;100.00
7966;BME280;4028;43.272;26.932;2023-12-14T05:39:51;98121.53;;;6.70;100.00
7966;BME280;4028;43.272;26.932;2023-12-14T05:42:17;98130.63;;;6.75;100.00
7966;BME280;4028;43.272;26.932;2023-12-14T05:44:43;98121.53;;;6.70;100.00
7966;BME280;4028;43.272;26.932;2023-12-14T05:47:10;98124.06;;;6.62;100.00
7966;BME280;4028;43.272;26.932;2023-12-14T05:49:36;98131.22;;;6.69;100.00
7966;BME280;4028;43.272;26.932;2023-12-14T05:52:02;98123.91;;;6.63;100.00
7966;BME280;4028;43.272;26.932;2023-12-14T05:54:28;98130.94;;;6.72;100.00
7966;BME280;4028;43.272;26.932;2023-12-14T05:56:54;98112.81;;;6.69;100.00
7966;BME280;4028;43.272;26.932;2023-12-14T05:59:19;98138.25;;;6.78;100.00
7966;BME280;4028;43.272;26.932;2023-12-14T06:01:45;98133.56;;;6.72;100.00
7966;BME280;4028;43.272;26.932;2023-12-14T06:04:10;98132.00;;;6.80;100.00
7966;BME280;4028;43.272;26.932;2023-12-14T06:06:38;98145.72;;;6.83;100.00
7966;BME280;4028;43.272;26.932;2023-12-14T06:09:04;98141.00;;;6.87;100.00
7966;BME280;4028;43.272;26.932;2023-12-14T06:11:32;98138.06;;;6.90;100.00
7966;BME280;4028;43.272;26.932;2023-12-14T06:13:58;98149.13;;;6.93;100.00
7966;BME280;4028;43.272;26.932;2023-12-14T06:16:25;98148.53;;;6.99;100.00
7966;BME280;4028;43.272;26.932;2023-12-14T06:18:50;98147.88;;;6.97;100.00
7966;BME280;4028;43.272;26.932;2023-12-14T06:21:16;98145.91;;;6.99;100.00
7966;BME280;4028;43.272;26.932;2023-12-14T06:23:41;98144.66;;;7.03;100.00
7966;BME280;4028;43.272;26.932;2023-12-14T06:26:07;98139.50;;;7.12;100.00
7966;BME280;4028;43.272;26.932;2023-12-14T06:28:32;98153.88;;;7.17;100.00
7966;BME280;4028;43.272;26.932;2023-12-14T06:30:58;98133.38;;;7.11;100.00
7966;BME280;4028;43.272;26.932;2023-12-14T06:33:23;98141.22;;;7.21;100.00
7966;BME280;4028;43.272;26.932;2023-12-14T06:35:49;98148.28;;;7.20;100.00
7966;BME280;4028;43.272;26.932;2023-12-14T06:38:15;98157.28;;;7.27;100.00
7966;BME280;4028;43.272;26.932;2023-12-14T06:40:40;98147.56;;;7.28;100.00
7966;BME280;4028;43.272;26.932;2023-12-14T06:43:06;98154.50;;;7.29;100.00
7966;BME280;4028;43.272;26.932;2023-12-14T06:45:31;98154.72;;;7.36;100.00
7966;BME280;4028;43.272;26.932;2023-12-14T06:47:57;98156.97;;;7.30;100.00
7966;BME280;4028;43.272;26.932;2023-12-14T06:50:22;98154.22;;;7.32;100.00
7966;BME280;4028;43.272;26.932;2023-12-14T06:52:48;98152.41;;;7.33;100.00
7966;BME280;4028;43.272;26.932;2023-12-14T06:55:13;98156.38;;;7.37;100.00
7966;BME280;4028;43.272;26.932;2023-12-14T06:57:42;98165.19;;;7.45;100.00
7966;BME280;4028;43.272;26.932;2023-12-14T07:00:09;98171.59;;;7.43;100.00
7966;BME280;4028;43.272;26.932;2023-12-14T07:02:35;98167.97;;;7.44;100.00
7966;BME280;4028;43.272;26.932;2023-12-14T07:05:00;98152.84;;;7.28;100.00
7966;BME280;4028;43.272;26.932;2023-12-14T07:07:26;98184.00;;;7.50;100.00
7966;BME280;4028;43.272;26.932;2023-12-14T07:09:51;98170.56;;;7.53;100.00
7966;BME280;4028;43.272;26.932;2023-12-14T07:12:17;98166.88;;;7.64;100.00
7966;BME280;4028;43.272;26.932;2023-12-14T07:14:43;98157.41;;;7.71;100.00
7966;BME280;4028;43.272;26.932;2023-12-14T07:17:08;98165.63;;;7.68;100.00
7966;BME280;4028;43.272;26.932;2023-12-14T07:19:34;98173.19;;;7.71;100.00
7966;BME280;4028;43.272;26.932;2023-12-14T07:22:01;98170.28;;;7.74;100.00
7966;BME280;4028;43.272;26.932;2023-12-14T07:24:26;98162.06;;;7.77;100.00
7966;BME280;4028;43.272;26.932;2023-12-14T07:26:52;98170.34;;;7.82;100.00
7966;BME280;4028;43.272;26.932;2023-12-14T07:29:17;98168.25;;;7.86;100.00
7966;BME280;4028;43.272;26.932;2023-12-14T07:31:43;98176.06;;;7.96;100.00
7966;BME280;4028;43.272;26.932;2023-12-14T07:34:08;98167.41;;;8.03;100.00
7966;BME280;4028;43.272;26.932;2023-12-14T07:36:33;98168.16;;;8.14;100.00
7966;BME280;4028;43.272;26.932;2023-12-14T07:38:59;98149.66;;;8.05;100.00
7966;BME280;4028;43.272;26.932;2023-12-14T07:41:26;98165.44;;;8.23;100.00
7966;BME280;4028;43.272;26.932;2023-12-14T07:43:55;98144.88;;;8.27;100.00
7966;BME280;4028;43.272;26.932;2023-12-14T07:46:21;98161.34;;;8.29;100.00
7966;BME280;4028;43.272;26.932;2023-12-14T07:48:46;98162.69;;;8.33;100.00
7966;BME280;4028;43.272;26.932;2023-12-14T07:51:12;98166.44;;;8.40;100.00
7966;BME280;4028;43.272;26.932;2023-12-14T07:53:38;98163.00;;;8.48;100.00
7966;BME280;4028;43.272;26.932;2023-12-14T07:56:04;98161.06;;;8.50;100.00
7966;BME280;4028;43.272;26.932;2023-12-14T07:58:30;98165.72;;;8.56;100.00
7966;BME280;4028;43.272;26.932;2023-12-14T08:00:55;98166.44;;;8.66;100.00
7966;BME280;4028;43.272;26.932;2023-12-14T08:03:21;98147.00;;;8.67;100.00
7966;BME280;4028;43.272;26.932;2023-12-14T08:05:47;98152.03;;;8.87;100.00
7966;BME280;4028;43.272;26.932;2023-12-14T08:08:12;98164.97;;;8.98;100.00
7966;BME280;4028;43.272;26.932;2023-12-14T08:10:38;98160.09;;;9.11;100.00
7966;BME280;4028;43.272;26.932;2023-12-14T08:13:03;98152.38;;;9.26;100.00
7966;BME280;4028;43.272;26.932;2023-12-14T08:15:29;98154.22;;;9.33;100.00
7966;BME280;4028;43.272;26.932;2023-12-14T08:17:55;98162.16;;;9.42;100.00
7966;BME280;4028;43.272;26.932;2023-12-14T08:20:20;98155.91;;;9.43;100.00
7966;BME280;4028;43.272;26.932;2023-12-14T08:22:47;98157.72;;;9.50;100.00
7966;BME280;4028;43.272;26.932;2023-12-14T08:25:13;98167.84;;;9.63;100.00
7966;BME280;4028;43.272;26.932;2023-12-14T08:27:39;98162.38;;;9.64;100.00
7966;BME280;4028;43.272;26.932;2023-12-14T08:30:05;98161.22;;;9.67;100.00
7966;BME280;4028;43.272;26.932;2023-12-14T08:32:31;98152.50;;;9.75;100.00
7966;BME280;4028;43.272;26.932;2023-12-14T08:34:56;98157.81;;;9.83;100.00
7966;BME280;4028;43.272;26.932;2023-12-14T08:37:22;98168.06;;;9.94;100.00
7966;BME280;4028;43.272;26.932;2023-12-14T08:39:47;98165.09;;;10.05;100.00
7966;BME280;4028;43.272;26.932;2023-12-14T08:42:13;98166.09;;;10.04;100.00
7966;BME280;4028;43.272;26.932;2023-12-14T08:44:39;98170.06;;;10.08;100.00
7966;BME280;4028;43.272;26.932;2023-12-14T08:47:05;98160.63;;;10.06;100.00
7966;BME280;4028;43.272;26.932;2023-12-14T08:49:31;98161.97;;;10.10;100.00
7966;BME280;4028;43.272;26.932;2023-12-14T08:51:56;98171.38;;;10.21;100.00
7966;BME280;4028;43.272;26.932;2023-12-14T08:54:22;98160.81;;;10.21;100.00
7966;BME280;4028;43.272;26.932;2023-12-14T08:56:47;98160.34;;;10.25;100.00
7966;BME280;4028;43.272;26.932;2023-12-14T08:59:13;98150.75;;;10.32;100.00
7966;BME280;4028;43.272;26.932;2023-12-14T09:01:39;98173.69;;;10.48;100.00
7966;BME280;4028;43.272;26.932;2023-12-14T09:04:04;98168.59;;;10.55;100.00
7966;BME280;4028;43.272;26.932;2023-12-14T09:06:30;98164.78;;;10.57;100.00
7966;BME280;4028;43.272;26.932;2023-12-14T09:08:55;98161.63;;;10.62;100.00
7966;BME280;4028;43.272;26.932;2023-12-14T09:11:21;98166.91;;;10.70;100.00
7966;BME280;4028;43.272;26.932;2023-12-14T09:13:46;98160.63;;;10.71;100.00
7966;BME280;4028;43.272;26.932;2023-12-14T09:16:12;98147.03;;;10.74;100.00
7966;BME280;4028;43.272;26.932;2023-12-14T09:18:38;98144.25;;;10.76;100.00
7966;BME280;4028;43.272;26.932;2023-12-14T09:21:03;98148.34;;;10.78;100.00
7966;BME280;4028;43.272;26.932;2023-12-14T09:23:29;98146.53;;;10.79;100.00
7966;BME280;4028;43.272;26.932;2023-12-14T09:25:55;98142.75;;;10.81;100.00
7966;BME280;4028;43.272;26.932;2023-12-14T09:28:21;98143.84;;;10.95;100.00
7966;BME280;4028;43.272;26.932;2023-12-14T09:30:47;98135.44;;;10.91;100.00
7966;BME280;4028;43.272;26.932;2023-12-14T09:33:12;98133.41;;;11.02;100.00
7966;BME280;4028;43.272;26.932;2023-12-14T09:35:38;98139.66;;;11.09;100.00
7966;BME280;4028;43.272;26.932;2023-12-14T09:38:05;98136.19;;;11.08;100.00
7966;BME280;4028;43.272;26.932;2023-12-14T09:40:31;98130.56;;;11.11;100.00
7966;BME280;4028;43.272;26.932;2023-12-14T09:42:57;98140.09;;;11.20;100.00
7966;BME280;4028;43.272;26.932;2023-12-14T09:45:29;98144.03;;;11.33;100.00
7966;BME280;4028;43.272;26.932;2023-12-14T09:47:59;98141.81;;;11.44;100.00
7966;BME280;4028;43.272;26.932;2023-12-14T09:50:25;98144.75;;;11.58;100.00
7966;BME280;4028;43.272;26.932;2023-12-14T09:52:51;98145.56;;;11.58;100.00
7966;BME280;4028;43.272;26.932;2023-12-14T09:55:16;98161.38;;;11.66;100.00
7966;BME280;4028;43.272;26.932;2023-12-14T09:57:42;98157.75;;;11.67;100.00
7966;BME280;4028;43.272;26.932;2023-12-14T10:00:08;98161.16;;;11.76;100.00
7966;BME280;4028;43.272;26.932;2023-12-14T10:02:39;98150.22;;;11.79;100.00
7966;BME280;4028;43.272;26.932;2023-12-14T10:05:08;98159.59;;;11.98;100.00
7966;BME280;4028;43.272;26.932;2023-12-14T10:07:41;98123.63;;;11.95;100.00
7966;BME280;4028;43.272;26.932;2023-12-14T10:10:11;98156.88;;;12.29;100.00
7966;BME280;4028;43.272;26.932;2023-12-14T10:12:54;98153.09;;;12.38;100.00
7966;BME280;4028;43.272;26.932;2023-12-14T10:15:20;98158.34;;;12.46;100.00
7966;BME280;4028;43.272;26.932;2023-12-14T10:17:51;98158.81;;;12.50;100.00
7966;BME280;4028;43.272;26.932;2023-12-14T10:20:23;98145.56;;;12.50;100.00
7966;BME280;4028;43.272;26.932;2023-12-14T10:22:51;98153.97;;;12.54;100.00
7966;BME280;4028;43.272;26.932;2023-12-14T10:25:18;98159.75;;;12.57;100.00
7966;BME280;4028;43.272;26.932;2023-12-14T10:27:47;98165.63;;;12.67;100.00
7966;BME280;4028;43.272;26.932;2023-12-14T10:30:15;98140.16;;;12.58;100.00
7966;BME280;4028;43.272;26.932;2023-12-14T10:32:40;98134.97;;;12.65;100.00
7966;BME280;4028;43.272;26.932;2023-12-14T10:35:07;98159.78;;;12.87;100.00
7966;BME280;4028;43.272;26.932;2023-12-14T10:37:37;98158.97;;;12.86;100.00
7966;BME280;4028;43.272;26.932;2023-12-14T10:40:04;98159.06;;;12.93;100.00
7966;BME280;4028;43.272;26.932;2023-12-14T10:42:31;98163.63;;;12.84;100.00
7966;BME280;4028;43.272;26.932;2023-12-14T10:44:58;98179.81;;;12.89;100.00
7966;BME280;4028;43.272;26.932;2023-12-14T10:47:26;98190.38;;;12.97;100.00
7966;BME280;4028;43.272;26.932;2023-12-14T10:49:53;98192.22;;;12.97;100.00
7966;BME280;4028;43.272;26.932;2023-12-14T10:52:21;98194.31;;;13.01;100.00
7966;BME280;4028;43.272;26.932;2023-12-14T10:54:50;98190.66;;;13.02;100.00
7966;BME280;4028;43.272;26.932;2023-12-14T10:57:17;98190.19;;;13.14;100.00
7966;BME280;4028;43.272;26.932;2023-12-14T10:59:43;98199.53;;;13.10;100.00
7966;BME280;4028;43.272;26.932;2023-12-14T11:02:09;98220.34;;;13.06;100.00
7966;BME280;4028;43.272;26.932;2023-12-14T11:04:54;98222.97;;;13.06;100.00
7966;BME280;4028;43.272;26.932;2023-12-14T11:10:10;98227.75;;;13.11;100.00
7966;BME280;4028;43.272;26.932;2023-12-14T11:12:37;98221.63;;;13.25;100.00
7966;BME280;4028;43.272;26.932;2023-12-14T11:15:04;98209.59;;;13.14;100.00
7966;BME280;4028;43.272;26.932;2023-12-14T11:17:30;98199.09;;;13.21;100.00
7966;BME280;4028;43.272;26.932;2023-12-14T11:19:55;98203.00;;;13.10;100.00
7966;BME280;4028;43.272;26.932;2023-12-14T11:22:27;98207.59;;;13.16;100.00
7966;BME280;4028;43.272;26.932;2023-12-14T11:24:54;98198.66;;;13.32;100.00
7966;BME280;4028;43.272;26.932;2023-12-14T11:27:28;98196.16;;;13.45;100.00
7966;BME280;4028;43.272;26.932;2023-12-14T11:29:54;98187.91;;;13.40;100.00
7966;BME280;4028;43.272;26.932;2023-12-14T11:32:19;98198.09;;;13.37;100.00
7966;BME280;4028;43.272;26.932;2023-12-14T11:34:46;98197.44;;;13.49;100.00
7966;BME280;4028;43.272;26.932;2023-12-14T11:37:12;98200.00;;;13.58;100.00
7966;BME280;4028;43.272;26.932;2023-12-14T11:39:38;98212.81;;;13.69;100.00
7966;BME280;4028;43.272;26.932;2023-12-14T11:42:05;98203.25;;;13.74;100.00
7966;BME280;4028;43.272;26.932;2023-12-14T11:44:33;98217.09;;;13.85;100.00
7966;BME280;4028;43.272;26.932;2023-12-14T11:46:59;98216.06;;;13.86;100.00
7966;BME280;4028;43.272;26.932;2023-12-14T11:49:25;98215.72;;;13.74;100.00
7966;BME280;4028;43.272;26.932;2023-12-14T11:51:55;98204.31;;;13.59;100.00
7966;BME280;4028;43.272;26.932;2023-12-14T11:54:20;98216.84;;;13.65;100.00
7966;BME280;4028;43.272;26.932;2023-12-14T11:56:47;98199.34;;;13.56;100.00
7966;BME280;4028;43.272;26.932;2023-12-14T11:59:15;98213.03;;;13.52;100.00
7966;BME280;4028;43.272;26.932;2023-12-14T12:01:55;98222.72;;;13.45;100.00
7966;BME280;4028;43.272;26.932;2023-12-14T12:04:22;98216.69;;;13.51;100.00
7966;BME280;4028;43.272;26.932;2023-12-14T12:06:48;98221.75;;;13.46;100.00
7966;BME280;4028;43.272;26.932;2023-12-14T12:09:13;98214.88;;;13.37;100.00
7966;BME280;4028;43.272;26.932;2023-12-14T12:11:39;98212.47;;;13.42;100.00
7966;BME280;4028;43.272;26.932;2023-12-14T12:14:05;98186.66;;;13.21;100.00
7966;BME280;4028;43.272;26.932;2023-12-14T12:16:30;98222.44;;;13.25;100.00
7966;BME280;4028;43.272;26.932;2023-12-14T12:18:56;98240.59;;;13.22;100.00
7966;BME280;4028;43.272;26.932;2023-12-14T12:21:21;98237.25;;;13.20;100.00
7966;BME280;4028;43.272;26.932;2023-12-14T12:23:47;98247.25;;;13.18;100.00
7966;BME280;4028;43.272;26.932;2023-12-14T12:26:13;98241.28;;;13.01;100.00
7966;BME280;4028;43.272;26.932;2023-12-14T12:28:38;98240.56;;;13.07;100.00
7966;BME280;4028;43.272;26.932;2023-12-14T12:31:04;98253.56;;;13.02;100.00
7966;BME280;4028;43.272;26.932;2023-12-14T12:33:29;98255.31;;;12.95;100.00
7966;BME280;4028;43.272;26.932;2023-12-14T12:35:55;98268.81;;;12.85;100.00
7966;BME280;4028;43.272;26.932;2023-12-14T12:38:20;98270.66;;;12.85;100.00
7966;BME280;4028;43.272;26.932;2023-12-14T12:40:46;98273.91;;;12.72;100.00
7966;BME280;4028;43.272;26.932;2023-12-14T12:43:13;98268.84;;;12.62;100.00
7966;BME280;4028;43.272;26.932;2023-12-14T12:45:39;98229.41;;;12.36;100.00
7966;BME280;4028;43.272;26.932;2023-12-14T12:48:05;98274.47;;;12.44;100.00
7966;BME280;4028;43.272;26.932;2023-12-14T12:50:32;98222.63;;;11.88;100.00
7966;BME280;4028;43.272;26.932;2023-12-14T12:52:58;98288.06;;;12.18;100.00
7966;BME280;4028;43.272;26.932;2023-12-14T12:55:23;98296.69;;;12.12;100.00
7966;BME280;4028;43.272;26.932;2023-12-14T12:57:49;98310.44;;;12.16;100.00
7966;BME280;4028;43.272;26.932;2023-12-14T13:00:15;98314.56;;;12.18;100.00
7966;BME280;4028;43.272;26.932;2023-12-14T13:02:41;98322.75;;;12.09;100.00
7966;BME280;4028;43.272;26.932;2023-12-14T13:05:08;98332.53;;;12.08;100.00
7966;BME280;4028;43.272;26.932;2023-12-14T13:07:34;98336.47;;;12.12;100.00